Date,TemperatureHighF,TemperatureAvgF,TemperatureLowF,DewpointHighF,DewpointAvgF,DewpointLowF,HumidityHigh,HumidityAvg,HumidityLow,PressureMaxIn,PressureMinIn,WindSpeedMaxMPH,WindSpeedAvgMPH,GustSpeedMaxMPH,PrecipitationSumIn
2013-9-1,85.8,74.9,71.6,78.0,72.7,70.0,96,93,77,29.87,29.79,1,0,8,0.57
2013-9-2,86.5,77.0,70.3,77.3,72.3,69.1,97,86,63,29.90,29.78,8,1,13,0.00
2013-9-3,89.0,78.2,69.4,75.6,71.2,65.7,96,81,50,29.94,29.79,7,0,10,0.00
2013-9-4,86.5,73.3,61.7,70.8,66.0,60.3,96,80,52,30.06,29.94,7,0,9,0.00
2013-9-5,85.2,71.8,60.2,69.8,64.8,58.8,96,81,54,30.10,30.03,6,0,11,0.00
2013-9-6,86.8,72.6,60.5,72.0,65.7,59.0,96,81,52,30.11,29.99,5,0,8,0.00
2013-9-7,88.7,74.3,61.8,73.4,67.6,60.0,96,81,55,30.06,29.93,6,0,10,0.00
2013-9-8,88.3,75.9,64.8,77.3,70.2,63.4,96,84,60,29.96,29.87,8,0,10,0.00
2013-9-9,89.8,77.9,70.5,76.9,72.5,69.0,95,84,59,30.05,29.93,7,0,8,0.00
2013-9-10,90.8,78.4,68.6,74.5,71.3,67.0,96,81,51,30.15,30.05,7,0,10,0.00
2013-9-11,89.9,77.5,67.6,74.0,70.4,66.0,96,81,52,30.18,30.04,6,0,8,0.00
2013-9-12,89.6,77.8,68.6,74.2,70.3,67.0,96,80,55,30.05,29.85,10,1,12,0.00
2013-9-13,82.1,74.0,60.4,69.0,63.1,54.0,93,71,41,29.93,29.82,10,1,12,0.00
2013-9-14,78.7,64.4,53.1,61.3,56.1,50.0,93,76,48,30.03,29.92,4,0,11,0.00
2013-9-15,84.6,67.3,53.7,68.9,60.5,52.0,95,81,51,30.12,30.03,8,0,11,0.00
2013-9-16,84.9,70.5,58.4,67.7,62.7,57.0,97,78,50,30.12,30.03,7,0,7,0.00
2013-9-17,83.2,73.3,65.3,68.6,64.3,60.7,88,74,59,30.16,30.06,10,1,11,0.00
2013-9-18,80.0,71.8,65.0,66.0,62.7,59.9,92,74,58,30.18,30.06,8,1,13,0.00
2013-9-19,84.8,71.1,59.6,70.2,64.2,58.0,96,81,57,30.15,29.99,7,0,12,0.00
2013-9-20,87.4,73.5,61.6,69.0,65.2,60.0,96,78,47,30.03,29.82,8,1,10,0.00
2013-9-21,72.3,67.9,58.2,69.1,65.8,56.8,96,93,85,29.83,29.70,11,0,18,2.10
2013-9-22,76.6,62.9,50.5,61.5,55.9,49.0,97,80,50,29.88,29.78,9,1,13,0.00
2013-9-23,81.3,66.0,54.5,65.5,59.0,52.8,95,80,54,29.97,29.87,5,0,9,0.00
2013-9-24,71.9,65.3,58.6,66.0,62.0,57.0,96,89,76,29.99,29.84,3,0,7,0.00
2013-9-25,69.0,67.0,65.5,67.0,65.5,64.0,96,95,91,29.84,29.78,0,0,6,0.35
2013-9-26,80.5,69.6,62.1,68.0,64.8,60.7,97,86,58,29.97,29.82,0,0,0,0.00
2013-9-27,81.3,66.8,55.4,65.1,60.4,54.0,97,82,49,30.11,29.97,0,0,0,0.00
2013-9-28,79.0,65.9,54.4,64.0,59.2,53.0,97,81,53,30.18,30.04,0,0,0,0.00
2013-9-29,75.7,64.6,53.6,63.0,58.6,52.0,96,82,55,30.11,29.97,0,0,0,0.01
2013-9-30,76.9,64.9,55.1,63.9,58.9,54.0,97,83,56,30.05,29.94,0,0,0,0.01